Station info - map view · info · telemetry · weather · raw · status · beacons · messages · bulletins · browse · moving · my account
Callsign, ship name or locator: Clear       
It is possible to search using wildcards (*?) after a prefix. Example: OH*
APRS station JQ2SQD-9 - show graphs
Map loading...
Mic-E message: Off duty
Location: 34°49.55' N 137°51.55' E - locator PM84WT38CE - show map - static map
4.2 miles West bearing 263° from Mori, Shizuoka, Japan [?]
4.7 miles Northeast bearing 67° from Hamakita, Shizuoka, Japan
31.4 miles West bearing 251° from Shizuoka-shi, Shizuoka, Japan
59.2 miles Southeast bearing 114° from Nagoya-shi, Aichi, Japan
Last position: 2017-01-01 08:42:51 EST (20d 12h12m ago)
2017-01-01 22:42:51 JST local time at Mori, Japan [?]
Altitude: 249 ft
Position ambiguous: Precision reduced at transmitter by 1 digits, position resolution approximately 202.3 yards.
Course: 91°
Device: Yaesu: FTM-350 (rig)
Last path: JQ2SQD-9>STTYUL via JQ2GLP-2*,qAR,JR2TER-10 (good)
Positions stored: 4404
Stations near current position of JQ2SQD-9 - show more
callsign distance last heard - EST      callsign distance last heard - EST
JQ2GLP-91.9 miles 84°2017-01-08 23:33:27 JF1XPB-73.0 miles 317°2017-01-08 22:25:59
JP2YHD-I6.0 miles 212°2017-01-21 20:52:17 JQ2GLP-26.3 miles 269°2017-01-21 20:30:15
JQ2GLP-136.3 miles 269°2017-01-12 01:47:49 JG2JNB6.4 miles 190°2016-12-30 17:11:17
JE6HOU-127.1 miles 214°2017-01-16 23:34:04 JO2VTM-I8.6 miles 215°2017-01-08 19:14:24
JR2LGW-138.6 miles 198°2017-01-21 20:45:10 JR2LGW-108.6 miles 198°2017-01-21 20:25:10
EW44838.6 miles 198°2017-01-21 20:55:04 JR2QYC9.7 miles 115°2016-12-25 04:02:16
JP2YHS-I9.7 miles 115°2017-01-21 20:50:28 JE2DZC-99.9 miles 223°2017-01-20 04:21:28
JG4XGD-D10.6 miles 84°2017-01-11 23:56:45 JG2KPT11.2 miles 117°2017-01-18 00:12:55
JR2LGW-912.6 miles 290°2017-01-03 03:30:33 JE2DZC13.0 miles 216°2017-01-21 17:27:23
JK2KNH-513.2 miles 226°2017-01-21 06:05:57 JE2DZC-9-i13.6 miles 216°2016-12-23 02:52:40
Stations which heard JQ2SQD-9 directly on radio –
callsign pkts first heard - EST last heard longest (tx => rx) longest at - EST
JK3SPC-2 3 2017-01-01 04:21:45 2017-01-01 04:45:45 PM74SU > PM74QS 13.1 miles 254° 2017-01-01 04:45:45
JQ2GLP-2 1 2017-01-01 08:42:51 2017-01-01 08:42:51 PM84WT > PM84UT 6.3 miles 269° 2017-01-01 08:42:51
JN3VDE-10 1 2017-01-01 04:39:45 2017-01-01 04:39:45 PM74RT > PM74RS 4.0 miles 212° 2017-01-01 04:39:45
JA4YMC-10 1 2017-01-01 02:55:16 2017-01-01 02:55:16 PM74KL > PM65TA 79.8 miles 298° 2017-01-01 02:55:16
JH3YBD-2 5 2017-01-01 02:17:52 2017-01-01 03:44:51 PM74GC > PM75HD 69.9 miles 5° 2017-01-01 02:18:27
JG2TYN-10 4 2017-01-01 08:03:10 2017-01-01 08:12:18 PM84SW > PM84QT 10.5 miles 224° 2017-01-01 08:12:18
JA2YEP-2 5 2017-01-01 05:35:34 2017-01-01 07:29:59 PM85JB > PM84GU 21.7 miles 230° 2017-01-01 07:29:59
JA5AIL-10 6 2016-12-31 19:22:43 2016-12-31 20:39:50 PM63VP > PM63RN 18.1 miles 249° 2016-12-31 20:39:50
JR5YDE-2 3 2016-12-31 19:55:47 2016-12-31 20:16:25 PM63VM > PM63PK 29.2 miles 257° 2016-12-31 19:55:47
JR3YDV-10 5 2017-01-01 04:55:01 2017-01-01 05:13:01 PM74XX > PM74UX 10.5 miles 272° 2017-01-01 05:13:01
JA2YAA-2 1 2017-01-01 07:53:58 2017-01-01 07:53:58 PM84OX > PM85KE 21.6 miles 304° 2017-01-01 07:53:58
JF3UYN-10 12 2017-01-01 03:50:51 2017-01-01 04:10:09 PM74NT > PM74OT 4.2 miles 84° 2017-01-01 03:50:51
JJ3YAR-10 3 2017-01-01 03:06:16 2017-01-01 04:24:45 PM74MN > PM74RL 24.4 miles 101° 2017-01-01 03:06:16
JF3DTW-10 4 2017-01-01 06:59:58 2017-01-01 07:32:58 PM85KB > PM84GT 25.9 miles 230° 2017-01-01 07:32:58
JL3ZAO-2 3 2017-01-01 03:32:07 2017-01-01 04:15:45 PM74MP > PM74TQ 35.9 miles 84° 2017-01-01 03:32:07
JO3HYR-10 4 2017-01-01 03:09:38 2017-01-01 04:36:45 PM74MO > PM74RL 27.4 miles 106° 2017-01-01 03:09:38
JL3YCZ-2 11 2017-01-01 00:23:11 2017-01-01 03:38:07 PM74MQ > PM74OC 42.7 miles 168° 2017-01-01 03:38:07
JA2YXC-10 2 2017-01-01 07:20:58 2017-01-01 07:23:58 PM85IA > PM85HA 3.0 miles 244° 2017-01-01 07:23:58
JR5YEM-2 5 2017-01-01 01:12:34 2017-01-01 02:15:14 PM74GA > PM74ED 14.2 miles 317° 2017-01-01 01:12:34
JA5MSG-10 13 2017-01-01 01:06:32 2017-01-01 02:25:16 PM73HX > PM74FC 11.2 miles 327° 2017-01-01 01:06:32
JO3DES-1 1 2017-01-01 05:10:01 2017-01-01 05:10:01 PM74WX > PM75XA 4.7 miles 51° 2017-01-01 05:10:01
JJ2YQW-2 4 2017-01-01 07:11:58 2017-01-01 07:41:58 PM84GX > PM85OL 51.6 miles 51° 2017-01-01 07:11:58

Only position packets which were originated by the station are shown here. The range statistics show some extra long hops, because some digipeaters do not correctly add themselves to the digipeater path. Please check the raw packets.
About this site
This page shows real-time information collected from the Automatic Position Reporting System Internet network (APRS-IS). APRS is used by amateur (ham) radio operators to transmit real-time position information, weather data, telemetry and messages over the radio. A vehicle equipped with a GPS receiver, a VHF transmitter or HF transceiver and a small computer device called a tracker transmits it's location, speed and course in a small data packet, which is then received by a nearby iGate receiving site which forwards the packet on the Internet. Systems connected to the Internet can send information on the APRS-IS without a radio transmitter, or collect and display information transmitted anywhere in the world.
FAQ · Blog · Discussion group · Linking to aprs.fi · AIS sites · Service status · Database statistics · Advertising on aprs.fi · Technical details · API · Change log · Planned changes · Credits and thanks · Terms Of Service · iPhone/iPad APRS